Time;durP1;ratioP1;P1;durP2;ratioP2;P2;SDS_P1;SDS_P2;PMS_P1;PMS_P2;Temp;Humidity;BMP_temperature;BMP_pressure;BME280_temperature;BME280_humidity;BME280_pressure;Samples;Min_cycle;Max_cycle;Signal;HPM_P1;HPM_P2
2023/10/02 00:00:30;;;;;;;9.70;3.15;;;16.80;99.90;;;;;;5060499;28;20096;-51
2023/10/02 00:02:56;;;;;;;9.70;2.63;;;16.00;99.90;;;;;;5073309;28;20072;-49
2023/10/02 00:05:40;;;;;;;8.75;3.30;;;16.00;99.90;;;;;;5073412;28;20115;-52
2023/10/02 00:08:06;;;;;;;6.03;2.80;;;16.00;99.90;;;;;;5073344;28;20028;-54
2023/10/02 00:10:31;;;;;;;10.80;3.30;;;14.50;99.90;;;;;;5073413;28;20029;-58
2023/10/02 00:13:00;;;;;;;6.10;2.85;;;16.00;99.90;;;;;;5073131;28;20111;-54
2023/10/02 00:15:26;;;;;;;6.83;2.97;;;16.40;99.90;;;;;;5066446;28;20028;-48
2023/10/02 00:17:52;;;;;;;11.10;3.88;;;15.90;99.90;;;;;;5068478;28;20261;-53
2023/10/02 00:20:26;;;;;;;7.05;3.03;;;16.20;99.90;;;;;;5071623;28;20385;-52
2023/10/02 00:22:52;;;;;;;9.45;3.80;;;15.90;99.90;;;;;;5072438;28;20102;-47
2023/10/02 00:25:20;;;;;;;11.98;3.55;;;15.90;99.90;;;;;;5072933;28;20028;-46
2023/10/02 00:27:51;;;;;;;8.35;3.65;;;15.90;99.90;;;;;;5072151;28;20036;-45
2023/10/02 00:30:20;;;;;;;5.65;2.88;;;15.90;99.90;;;;;;5072212;28;20025;-43
2023/10/02 00:32:47;;;;;;;;;;;15.90;99.90;;;;;;5072441;28;20035;-45
2023/10/02 00:35:14;;;;;;;6.97;2.63;;;15.90;99.90;;;;;;5072442;28;19954;-45
2023/10/02 00:37:45;;;;;;;6.53;3.10;;;15.90;99.90;;;;;;5072239;28;20393;-41
2023/10/02 00:40:20;;;;;;;7.60;3.38;;;15.90;99.90;;;;;;5072091;28;20473;-48
2023/10/02 00:42:55;;;;;;;7.00;3.35;;;16.00;99.90;;;;;;5071996;28;20040;-49
2023/10/02 00:45:21;;;;;;;7.95;3.10;;;16.00;99.90;;;;;;5071800;28;20028;-58
2023/10/02 00:47:49;;;;;;;7.50;3.28;;;16.10;99.90;;;;;;5072084;28;20401;-45
2023/10/02 00:50:18;;;;;;;9.85;3.58;;;16.10;99.90;;;;;;5071551;28;20066;-52
2023/10/02 00:52:50;;;;;;;6.93;3.15;;;16.10;99.90;;;;;;5072327;28;20017;-46
2023/10/02 00:55:22;;;;;;;9.25;3.67;;;16.50;99.90;;;;;;5071284;28;20033;-46
2023/10/02 00:57:50;;;;;;;7.60;3.42;;;16.10;99.90;;;;;;5072112;28;20055;-55
2023/10/02 01:00:18;;;;;;;9.53;3.43;;;16.20;99.90;;;;;;5070535;28;20448;-46
2023/10/02 01:02:45;;;;;;;7.72;3.67;;;16.20;99.90;;;;;;5071660;28;20127;-46
2023/10/02 01:05:42;;;;;;;10.73;4.03;;;16.20;99.90;;;;;;5070040;28;20465;-44
2023/10/02 01:08:25;;;;;;;7.88;3.72;;;16.20;99.90;;;;;;5060231;28;20036;-56
2023/10/02 01:10:58;;;;;;;6.93;3.55;;;16.20;99.90;;;;;;5071102;28;20492;-55
2023/10/02 01:13:32;;;;;;;8.75;3.78;;;16.90;99.90;;;;;;5071865;28;20093;-41
2023/10/02 01:16:00;;;;;;;12.63;4.05;;;16.20;99.90;;;;;;5070788;28;20028;-48
2023/10/02 01:18:29;;;;;;;9.63;3.83;;;16.20;99.90;;;;;;5072244;28;20024;-54
2023/10/02 01:20:59;;;;;;;;;;;16.10;99.90;;;;;;5072449;28;20060;-44
2023/10/02 01:23:26;;;;;;;6.90;3.42;;;16.00;99.90;;;;;;5072167;28;19927;-53
2023/10/02 01:25:57;;;;;;;7.75;3.00;;;15.10;99.90;;;;;;5071833;28;20385;-49
2023/10/02 01:28:49;;;;;;;8.35;2.65;;;15.90;99.90;;;;;;5072175;28;20109;-55
2023/10/02 01:31:40;;;;;;;8.40;3.30;;;15.90;99.90;;;;;;5071045;28;20017;-44
2023/10/02 01:34:06;;;;;;;6.75;2.65;;;15.90;99.90;;;;;;5071619;28;20489;-51
2023/10/02 01:36:32;;;;;;;5.60;2.58;;;15.80;99.90;;;;;;5071534;28;20188;-57
2023/10/02 01:39:13;;;;;;;8.68;3.13;;;15.70;99.90;;;;;;5071642;28;20024;-48
2023/10/02 01:41:48;;;;;;;8.55;2.92;;;17.10;99.90;;;;;;5071167;28;20457;-52
2023/10/02 01:44:20;;;;;;;7.57;3.15;;;15.60;99.90;;;;;;5071250;28;20503;-51
2023/10/02 01:46:52;;;;;;;6.40;2.40;;;15.60;99.90;;;;;;5071343;28;20032;-54
2023/10/02 01:49:24;;;;;;;7.55;3.40;;;15.60;99.90;;;;;;5071569;28;20381;-50
2023/10/02 01:52:01;;;;;;;8.07;2.97;;;15.60;99.90;;;;;;5071337;28;20016;-45
2023/10/02 01:54:27;;;;;;;6.80;2.80;;;15.60;99.90;;;;;;5071690;28;20112;-52
2023/10/02 01:56:55;;;;;;;5.25;2.55;;;15.60;99.90;;;;;;5071153;28;20146;-61
2023/10/02 01:59:21;;;;;;;6.75;2.70;;;15.30;99.90;;;;;;5071516;28;20032;-58
2023/10/02 02:01:56;;;;;;;6.53;2.88;;;15.90;99.90;;;;;;5070778;28;20044;-53
2023/10/02 02:04:23;;;;;;;9.55;3.15;;;15.50;99.90;;;;;;5070655;28;20024;-44
2023/10/02 02:06:51;;;;;;;5.72;2.63;;;16.50;99.90;;;;;;5070821;28;20033;-53
2023/10/02 02:09:24;;;;;;;6.63;3.10;;;15.30;99.90;;;;;;5070974;28;20493;-50
2023/10/02 02:12:05;;;;;;;8.88;3.33;;;12.90;99.90;;;;;;5071113;28;20017;-47
2023/10/02 02:14:52;;;;;;;5.15;2.28;;;14.40;99.90;;;;;;5070773;28;20021;-55
2023/10/02 02:17:23;;;;;;;6.03;2.63;;;17.00;99.90;;;;;;5070531;28;20039;-58
2023/10/02 02:19:49;;;;;;;6.47;2.38;;;16.10;99.90;;;;;;5070680;28;20021;-54
2023/10/02 02:22:26;;;;;;;7.78;2.65;;;15.20;99.90;;;;;;5071118;28;20385;-54
2023/10/02 02:24:53;;;;;;;6.40;3.00;;;15.20;99.90;;;;;;5070687;28;20032;-55
2023/10/02 02:27:19;;;;;;;5.90;2.60;;;15.20;99.90;;;;;;5070578;28;20028;-54
2023/10/02 02:29:54;;;;;;;9.57;3.03;;;15.40;99.90;;;;;;5070363;28;20032;-51
2023/10/02 02:32:36;;;;;;;10.38;3.45;;;12.60;99.90;;;;;;5069987;28;20444;-58
2023/10/02 02:35:06;;;;;;;8.48;3.65;;;16.10;99.90;;;;;;5070599;28;20021;-52
2023/10/02 02:37:33;;;;;;;11.32;3.47;;;15.30;99.90;;;;;;5069322;28;20024;-52
2023/10/02 02:40:22;;;;;;;9.48;3.70;;;15.20;99.90;;;;;;5070350;28;20047;-61
2023/10/02 02:42:50;;;;;;;7.30;3.58;;;15.20;99.90;;;;;;5069867;28;20158;-54
2023/10/02 02:45:28;;;;;;;8.15;3.22;;;15.30;99.90;;;;;;5070552;28;20039;-52
2023/10/02 02:48:10;;;;;;;10.23;3.38;;;15.30;99.90;;;;;;5070576;28;20108;-43
2023/10/02 02:50:41;;;;;;;8.00;2.85;;;15.30;99.90;;;;;;5070735;28;20032;-50
2023/10/02 02:53:16;;;;;;;9.25;3.20;;;15.20;99.90;;;;;;5056869;28;20035;-59
2023/10/02 02:55:45;;;;;;;9.00;3.40;;;15.20;99.90;;;;;;5070515;28;20021;-56
2023/10/02 02:58:11;;;;;;;7.35;3.00;;;15.20;99.90;;;;;;5070268;28;20024;-58
2023/10/02 03:00:39;;;;;;;13.57;3.47;;;15.10;99.90;;;;;;5069860;28;20107;-55
2023/10/02 03:03:29;;;;;;;7.88;3.80;;;15.10;99.90;;;;;;5069942;28;20059;-52
2023/10/02 03:05:58;;;;;;;11.05;3.65;;;16.40;99.90;;;;;;5069526;28;20554;-46
2023/10/02 03:08:37;;;;;;;12.57;3.85;;;15.10;99.90;;;;;;5070307;28;20033;-56
2023/10/02 03:11:10;;;;;;;14.70;4.40;;;13.10;99.90;;;;;;5069890;28;20478;-58
2023/10/02 03:13:36;;;;;;;16.60;4.22;;;16.10;99.90;;;;;;5056743;28;20115;-60
2023/10/02 03:16:12;;;;;;;11.30;3.83;;;16.60;99.90;;;;;;5070012;28;20033;-56
2023/10/02 03:18:43;;;;;;;13.68;4.85;;;15.30;99.90;;;;;;5070355;28;20024;-59
2023/10/02 03:21:15;;;;;;;12.50;5.20;;;15.20;99.90;;;;;;5070183;28;20492;-57
2023/10/02 03:23:44;;;;;;;18.17;5.30;;;15.20;99.90;;;;;;5070109;28;20286;-48
2023/10/02 03:29:03;;;;;;;15.65;5.30;;;15.20;99.90;;;;;;5057828;28;20032;-51
2023/10/02 03:31:51;;;;;;;13.85;5.07;;;15.20;99.90;;;;;;5069646;28;20057;-56
2023/10/02 03:34:27;;;;;;;14.88;5.18;;;15.10;99.90;;;;;;5070018;28;20106;-56
2023/10/02 03:39:53;;;;;;;16.67;4.43;;;15.10;99.90;;;;;;5069955;28;20040;-51
2023/10/02 03:42:22;;;;;;;14.75;4.03;;;15.20;99.90;;;;;;5069982;28;20443;-49
2023/10/02 03:44:54;;;;;;;14.43;4.65;;;15.10;99.90;;;;;;5070125;28;20104;-59
2023/10/02 03:47:24;;;;;;;16.23;5.03;;;15.00;99.90;;;;;;5069728;28;20032;-50
2023/10/02 03:49:50;;;;;;;11.90;4.10;;;15.10;99.90;;;;;;5070162;28;20103;-54
2023/10/02 03:52:17;;;;;;;13.07;3.65;;;15.00;99.90;;;;;;5069838;28;20078;-54
2023/10/02 03:54:45;;;;;;;15.05;3.55;;;15.00;99.90;;;;;;5070080;28;20489;-55
2023/10/02 03:57:37;;;;;;;8.23;3.15;;;15.80;99.90;;;;;;5073616;28;20025;-56
2023/10/02 04:02:44;;;;;;;6.78;3.00;;;15.10;99.90;;;;;;5073480;28;20048;-47
2023/10/02 04:05:10;;;;;;;9.48;3.15;;;15.20;99.90;;;;;;5073245;28;20013;-46
2023/10/02 04:07:35;;;;;;;8.00;2.88;;;15.20;99.90;;;;;;5073115;28;20032;-56
2023/10/02 04:10:06;;;;;;;6.47;3.13;;;13.80;99.90;;;;;;5073061;28;20025;-41
2023/10/02 04:12:50;;;;;;;5.82;2.50;;;15.10;99.90;;;;;;5072513;28;20067;-55
2023/10/02 04:15:16;;;;;;;7.35;2.72;;;14.80;99.90;;;;;;5072870;28;20062;-50
2023/10/02 04:17:49;;;;;;;6.28;2.50;;;15.40;99.90;;;;;;5072898;28;20058;-56
2023/10/02 04:20:27;;;;;;;5.40;2.17;;;16.60;99.90;;;;;;5073050;28;20027;-59
2023/10/02 04:23:18;;;;;;;5.57;2.63;;;15.40;99.90;;;;;;5072787;28;20124;-55
2023/10/02 04:25:42;;;;;;;5.60;3.13;;;15.40;99.90;;;;;;5072788;28;20034;-47
2023/10/02 04:28:08;;;;;;;5.82;2.83;;;15.40;99.90;;;;;;5072955;28;20028;-53
2023/10/02 04:30:37;;;;;;;6.18;2.80;;;15.40;99.90;;;;;;5072856;28;20476;-54
2023/10/02 04:33:08;;;;;;;7.53;2.80;;;15.40;99.90;;;;;;5072641;28;20131;-53
2023/10/02 04:35:52;;;;;;;8.32;3.30;;;18.30;99.90;;;;;;5072692;28;20025;-54
2023/10/02 04:38:47;;;;;;;9.10;3.22;;;15.40;99.90;;;;;;5072715;28;20032;-61
2023/10/02 04:41:12;;;;;;;9.75;3.35;;;15.40;99.90;;;;;;5072291;28;20385;-60
2023/10/02 04:43:39;;;;;;;8.43;3.25;;;15.40;99.90;;;;;;5072262;28;20028;-58
2023/10/02 04:46:14;;;;;;;9.63;4.22;;;15.40;99.90;;;;;;5072549;28;20035;-49
2023/10/02 04:48:42;;;;;;;8.68;3.75;;;15.40;99.90;;;;;;5072479;28;20024;-48
2023/10/02 04:51:09;;;;;;;8.63;3.42;;;16.60;99.90;;;;;;5071100;28;20048;-56
2023/10/02 04:53:46;;;;;;;7.00;3.42;;;15.30;99.90;;;;;;5072453;28;20020;-52
2023/10/02 04:58:50;;;;;;;7.85;3.35;;;14.20;99.90;;;;;;5072224;28;20025;-56
2023/10/02 05:02:15;;;;;;;6.43;2.85;;;15.90;99.90;;;;;;5071355;28;20029;-56
2023/10/02 05:04:18;;;;;;;5.70;2.90;;;15.40;99.90;;;;;;5070968;28;20044;-58
2023/10/02 05:06:52;;;;;;;6.75;2.90;;;15.40;99.90;;;;;;5071517;28;20045;-44
2023/10/02 05:09:25;;;;;;;5.85;2.83;;;15.90;99.90;;;;;;5072357;28;20021;-60
2023/10/02 05:11:57;;;;;;;6.28;3.00;;;12.40;99.90;;;;;;5072472;28;20039;-49
2023/10/02 05:14:26;;;;;;;7.40;2.80;;;15.60;99.90;;;;;;5072134;28;20036;-51
2023/10/02 05:17:19;;;;;;;4.50;2.78;;;16.70;99.90;;;;;;5071898;28;20036;-57
2023/10/02 05:20:01;;;;;;;6.07;2.70;;;17.60;99.90;;;;;;5072264;28;20099;-59
2023/10/02 05:22:30;;;;;;;5.55;2.70;;;15.60;99.90;;;;;;5070874;28;20036;-58
2023/10/02 05:24:59;;;;;;;6.85;3.33;;;17.40;99.90;;;;;;5071987;28;20020;-53
2023/10/02 05:27:33;;;;;;;5.57;2.70;;;15.60;99.90;;;;;;5071775;28;20041;-49
2023/10/02 05:30:01;;;;;;;6.60;3.00;;;13.80;99.90;;;;;;5071285;28;20499;-55
2023/10/02 05:32:31;;;;;;;6.05;2.80;;;17.20;99.90;;;;;;5071233;28;20362;-56
2023/10/02 05:37:40;;;;;;;5.00;2.75;;;16.10;99.90;;;;;;5071551;28;20426;-53
2023/10/02 05:43:09;;;;;;;9.10;3.70;;;15.80;99.90;;;;;;5069048;28;20032;-53
2023/10/02 05:45:40;;;;;;;8.25;3.20;;;15.80;99.90;;;;;;5069106;28;20116;-46
2023/10/02 05:48:27;;;;;;;7.53;2.85;;;15.80;99.90;;;;;;5071579;28;20086;-48
2023/10/02 05:50:58;;;;;;;10.82;3.53;;;15.80;99.90;;;;;;5071667;28;20055;-44
2023/10/02 05:53:26;;;;;;;6.22;2.90;;;15.80;99.90;;;;;;5071645;28;20020;-41
2023/10/02 05:58:34;;;;;;;9.45;3.25;;;15.70;99.90;;;;;;5071462;28;20024;-48
2023/10/02 06:01:05;;;;;;;13.82;4.35;;;15.60;99.90;;;;;;5070893;28;20115;-59
2023/10/02 06:03:35;;;;;;;9.15;4.15;;;15.70;99.90;;;;;;5070931;28;20041;-54
2023/10/02 06:06:21;;;;;;;18.77;5.60;;;15.70;99.90;;;;;;5071120;28;20024;-60
2023/10/02 06:08:51;;;;;;;18.40;4.95;;;15.20;99.90;;;;;;5071151;28;20024;-52
2023/10/02 06:11:27;;;;;;;13.75;4.63;;;15.70;99.90;;;;;;5071045;28;20650;-61
2023/10/02 06:13:56;;;;;;;13.55;4.10;;;15.70;99.90;;;;;;5071141;28;20065;-55
2023/10/02 06:16:26;;;;;;;13.95;4.90;;;15.70;99.90;;;;;;5070905;28;20044;-57
2023/10/02 06:19:01;;;;;;;;;;;15.70;99.90;;;;;;5071335;28;20024;-52
2023/10/02 06:21:31;;;;;;;17.95;4.78;;;17.70;99.90;;;;;;5070943;28;19998;-49
2023/10/02 06:23:58;;;;;;;17.25;5.40;;;13.70;99.90;;;;;;5070837;28;20481;-51
2023/10/02 06:26:29;;;;;;;11.13;4.55;;;15.80;99.90;;;;;;5067752;28;20404;-55
2023/10/02 06:29:16;;;;;;;18.63;4.68;;;16.00;99.90;;;;;;5053765;28;20036;-55
2023/10/02 06:31:42;;;;;;;15.95;5.15;;;15.90;99.90;;;;;;5053986;28;20454;-57
2023/10/02 06:34:11;;;;;;;15.48;4.65;;;15.90;99.90;;;;;;5053761;28;20025;-56
2023/10/02 06:36:48;;;;;;;16.17;5.03;;;15.90;99.90;;;;;;5053937;28;20048;-54
2023/10/02 06:39:21;;;;;;;20.00;5.40;;;16.00;99.90;;;;;;5054161;28;20021;-51
2023/10/02 06:41:47;;;;;;;15.20;4.68;;;16.00;99.90;;;;;;5056514;28;20056;-57
2023/10/02 06:44:16;;;;;;;13.40;4.95;;;15.20;99.90;;;;;;5059336;28;21246;-46
2023/10/02 06:46:55;;;;;;;16.50;5.32;;;15.10;99.90;;;;;;5070284;28;20059;-41
2023/10/02 06:49:21;;;;;;;16.90;5.57;;;16.10;99.90;;;;;;5070566;28;20029;-41
2023/10/02 06:51:49;;;;;;;21.25;5.35;;;17.40;99.90;;;;;;5070756;28;20051;-43
2023/10/02 06:54:18;;;;;;;19.90;5.70;;;16.10;99.90;;;;;;5070521;28;20095;-41
2023/10/02 06:56:44;;;;;;;24.15;5.47;;;16.20;99.90;;;;;;5070564;28;20020;-42
2023/10/02 06:59:09;;;;;;;15.88;5.10;;;16.10;99.90;;;;;;5067552;28;20142;-41
2023/10/02 07:01:36;;;;;;;17.63;5.22;;;15.90;99.90;;;;;;5054719;28;20037;-53
2023/10/02 07:04:09;;;;;;;25.20;7.05;;;16.20;99.90;;;;;;5058541;28;20069;-41
2023/10/02 07:06:41;;;;;;;19.48;6.75;;;18.20;99.90;;;;;;5054473;28;20402;-41
2023/10/02 07:09:10;;;;;;;23.27;6.03;;;16.30;99.90;;;;;;5058389;28;20033;-41
2023/10/02 07:11:36;;;;;;;19.60;6.53;;;16.40;99.90;;;;;;5054467;28;20029;-47
2023/10/02 07:14:04;;;;;;;17.02;5.35;;;14.60;99.90;;;;;;5057385;28;20473;-44
2023/10/02 07:16:38;;;;;;;15.05;4.65;;;15.70;99.90;;;;;;5053940;28;20381;-53
2023/10/02 07:19:04;;;;;;;19.67;4.80;;;16.50;99.90;;;;;;5056627;28;20021;-43
2023/10/02 07:21:31;;;;;;;18.42;5.22;;;16.60;99.90;;;;;;5055869;28;20040;-51
2023/10/02 07:23:58;;;;;;;15.60;4.55;;;16.70;99.90;;;;;;5062982;28;20038;-46
2023/10/02 07:29:08;;;;;;;17.25;4.57;;;16.70;99.90;;;;;;5068980;28;20085;-54
2023/10/02 07:31:34;;;;;;;15.07;4.55;;;16.80;99.90;;;;;;5070127;28;20103;-44
2023/10/02 07:34:01;;;;;;;19.50;5.03;;;16.90;99.90;;;;;;5072313;28;20048;-48
2023/10/02 07:36:26;;;;;;;24.38;4.85;;;16.90;99.90;;;;;;5071107;28;20036;-49
2023/10/02 07:38:54;;;;;;;21.08;5.53;;;16.90;99.90;;;;;;5066522;28;20033;-46
2023/10/02 07:41:23;;;;;;;12.48;3.90;;;16.90;99.90;;;;;;5072596;28;20024;-41
2023/10/02 07:44:07;;;;;;;18.30;5.25;;;16.90;99.90;;;;;;5072499;28;20023;-53
2023/10/02 07:46:33;;;;;;;16.60;5.07;;;17.00;99.90;;;;;;5070415;28;20047;-47
2023/10/02 07:49:04;;;;;;;14.95;5.35;;;17.10;99.90;;;;;;5073052;28;20056;-46
2023/10/02 07:51:40;;;;;;;12.82;5.28;;;17.10;99.90;;;;;;5069927;28;20027;-53
2023/10/02 07:54:13;;;;;;;16.63;5.80;;;17.50;99.90;;;;;;5069363;28;20029;-51
2023/10/02 07:56:39;;;;;;;13.75;4.82;;;17.20;99.90;;;;;;5071877;28;20024;-47
2023/10/02 07:59:07;;;;;;;13.70;5.03;;;17.20;99.90;;;;;;5065321;28;20028;-54
2023/10/02 08:01:33;;;;;;;16.10;5.43;;;17.20;99.90;;;;;;5065596;28;20025;-50
2023/10/02 08:04:01;;;;;;;17.63;5.45;;;17.20;99.90;;;;;;5056833;28;20029;-47
2023/10/02 08:06:33;;;;;;;15.57;5.03;;;17.20;99.90;;;;;;5056885;28;20068;-50
2023/10/02 08:11:51;;;;;;;15.35;4.93;;;17.30;99.90;;;;;;5055021;28;20095;-55
2023/10/02 08:14:42;;;;;;;12.75;4.28;;;17.30;99.90;;;;;;5055024;28;20486;-57
2023/10/02 08:17:19;;;;;;;14.43;4.65;;;17.30;99.90;;;;;;5064949;28;20493;-52
2023/10/02 08:19:54;;;;;;;12.68;4.28;;;17.30;99.90;;;;;;5059769;28;20104;-50
2023/10/02 08:22:24;;;;;;;13.52;4.45;;;17.30;99.90;;;;;;5067140;28;20089;-54
2023/10/02 08:24:50;;;;;;;10.15;3.72;;;17.30;99.90;;;;;;5066476;28;20032;-58
2023/10/02 08:27:16;;;;;;;12.90;4.80;;;17.40;99.90;;;;;;5059013;28;20114;-53
2023/10/02 08:29:44;;;;;;;7.95;3.40;;;17.50;99.90;;;;;;5067798;28;20056;-52
2023/10/02 08:32:10;;;;;;;7.55;3.30;;;17.50;99.90;;;;;;5067659;28;20214;-48
2023/10/02 08:34:36;;;;;;;7.70;2.78;;;17.50;99.90;;;;;;5065875;28;20071;-49
2023/10/02 08:37:05;;;;;;;9.57;3.60;;;17.50;99.90;;;;;;5064703;28;20694;-43
2023/10/02 08:39:34;;;;;;;7.20;3.28;;;16.00;99.90;;;;;;5064375;28;20033;-55
2023/10/02 08:42:08;;;;;;;11.50;4.22;;;17.50;99.90;;;;;;5064331;28;20040;-51
2023/10/02 08:44:38;;;;;;;10.80;3.97;;;17.50;99.90;;;;;;5061841;28;20121;-48
2023/10/02 08:47:07;;;;;;;12.15;4.53;;;17.50;99.90;;;;;;5070662;28;20036;-49
2023/10/02 08:49:34;;;;;;;8.88;4.20;;;17.70;99.90;;;;;;5064114;28;20069;-46
2023/10/02 08:52:03;;;;;;;7.40;3.67;;;18.00;99.90;;;;;;5060543;28;20031;-43
2023/10/02 08:54:31;;;;;;;9.18;3.88;;;17.70;99.90;;;;;;5054071;28;20025;-45
2023/10/02 08:57:08;;;;;;;8.32;4.07;;;17.80;99.90;;;;;;5066412;28;20040;-56
2023/10/02 08:59:42;;;;;;;10.55;3.92;;;17.80;99.90;;;;;;5064310;28;20028;-52
2023/10/02 09:02:13;;;;;;;9.00;3.80;;;17.80;99.90;;;;;;5064741;28;20120;-46
2023/10/02 09:04:41;;;;;;;7.55;3.78;;;17.80;99.90;;;;;;5060395;28;20035;-48
2023/10/02 09:07:22;;;;;;;10.05;3.70;;;17.80;99.90;;;;;;5064589;28;20036;-51
2023/10/02 09:09:54;;;;;;;8.48;3.65;;;17.90;99.90;;;;;;5064905;28;20021;-54
2023/10/02 09:12:20;;;;;;;10.68;4.07;;;17.90;99.90;;;;;;5065931;28;20500;-52
2023/10/02 09:14:46;;;;;;;8.35;3.92;;;17.90;99.90;;;;;;5064649;28;20422;-48
2023/10/02 09:17:33;;;;;;;10.27;4.10;;;17.90;99.90;;;;;;5067792;28;20112;-43
2023/10/02 09:20:03;;;;;;;7.30;3.67;;;17.80;99.90;;;;;;5056156;28;20021;-46
2023/10/02 09:22:34;;;;;;;9.50;3.95;;;17.80;99.90;;;;;;5061697;28;20094;-44
2023/10/02 09:25:13;;;;;;;10.27;3.80;;;17.80;99.90;;;;;;5069754;28;20033;-44
2023/10/02 09:28:00;;;;;;;13.73;5.85;;;17.80;99.90;;;;;;5066418;28;20109;-43
2023/10/02 09:30:41;;;;;;;8.20;4.13;;;17.90;99.90;;;;;;5064864;28;20542;-42
2023/10/02 09:33:14;;;;;;;8.25;3.85;;;17.90;99.90;;;;;;5069171;28;20115;-51
2023/10/02 09:35:44;;;;;;;12.30;5.20;;;18.00;99.90;;;;;;5067817;28;20022;-47
2023/10/02 09:38:16;;;;;;;11.38;4.63;;;18.00;99.90;;;;;;5057038;28;20062;-43
2023/10/02 09:40:56;;;;;;;;;;;;;;;;;;;;;
2023/10/02 09:43:23;;;;;;;11.65;5.80;;;17.90;99.90;;;;;;5069588;28;20017;-40
2023/10/02 09:45:55;;;;;;;13.40;5.60;;;17.90;99.90;;;;;;5061400;28;20025;-43
2023/10/02 09:51:37;;;;;;;55.92;24.65;;;18.10;99.90;;;;;;5052554;28;20035;-41
2023/10/02 09:54:08;;;;;;;58.40;27.10;;;18.00;99.90;;;;;;5057878;28;20107;-43
2023/10/02 09:57:04;;;;;;;49.08;24.40;;;17.90;99.90;;;;;;5052986;28;20354;-47
2023/10/02 09:59:46;;;;;;;49.80;23.83;;;17.90;99.90;;;;;;5057702;28;20024;-43
2023/10/02 10:07:52;;;;;;;35.20;17.17;;;18.20;99.90;;;;;;5060075;28;20043;-41
2023/10/02 10:10:28;;;;;;;27.73;13.95;;;18.40;99.90;;;;;;5058821;28;20024;-48
2023/10/02 10:12:58;;;;;;;24.35;12.50;;;18.50;99.90;;;;;;5057486;28;20024;-41
2023/10/02 10:15:25;;;;;;;22.75;12.50;;;18.60;99.90;;;;;;5059366;28;20039;-51
2023/10/02 10:17:51;;;;;;;19.73;12.10;;;18.60;99.90;;;;;;5060530;28;20676;-47
2023/10/02 10:20:20;;;;;;;20.52;11.50;;;18.60;99.90;;;;;;5059336;28;20390;-45
2023/10/02 10:22:56;;;;;;;25.23;13.07;;;18.60;99.90;;;;;;5063608;28;20040;-43
2023/10/02 10:28:02;;;;;;;25.65;12.13;;;18.60;99.90;;;;;;5062650;28;20127;-41
2023/10/02 10:30:33;;;;;;;19.83;11.63;;;18.70;99.90;;;;;;5067779;28;20040;-41
2023/10/02 10:33:15;;;;;;;23.10;11.68;;;18.60;99.90;;;;;;5060388;28;20025;-48
2023/10/02 10:35:49;;;;;;;20.98;10.80;;;18.60;99.90;;;;;;5064308;28;20032;-41
2023/10/02 10:38:29;;;;;;;24.27;12.23;;;18.60;99.90;;;;;;5066994;28;20055;-43
2023/10/02 10:41:01;;;;;;;19.58;11.27;;;18.70;99.90;;;;;;5060503;28;20604;-50
2023/10/02 10:43:44;;;;;;;35.10;15.35;;;18.70;99.90;;;;;;5063444;28;20509;-50
2023/10/02 10:46:29;;;;;;;25.90;13.32;;;18.60;99.90;;;;;;5070207;28;20045;-51
2023/10/02 10:48:59;;;;;;;23.33;10.82;;;18.60;99.90;;;;;;5067123;28;20028;-60
2023/10/02 10:51:28;;;;;;;20.67;11.02;;;18.80;99.90;;;;;;5069564;28;20166;-53
2023/10/02 10:54:19;;;;;;;18.65;9.25;;;18.90;99.90;;;;;;5060485;28;20016;-52
2023/10/02 10:56:56;;;;;;;18.65;10.27;;;19.10;99.90;;;;;;5069161;28;20268;-48
2023/10/02 10:59:32;;;;;;;19.77;10.45;;;19.40;99.90;;;;;;5051584;28;20016;-48
2023/10/02 11:02:16;;;;;;;19.48;9.57;;;19.20;99.90;;;;;;5049746;28;20090;-48
2023/10/02 11:04:49;;;;;;;21.98;10.65;;;19.20;99.90;;;;;;5049227;28;20021;-47
2023/10/02 11:07:19;;;;;;;24.83;10.95;;;19.20;99.90;;;;;;5052889;28;20128;-47
2023/10/02 11:10:19;;;;;;;21.75;10.07;;;19.20;99.90;;;;;;5058035;28;20028;-47
2023/10/02 11:12:56;;;;;;;17.92;8.73;;;19.20;99.90;;;;;;5065090;28;20056;-47
2023/10/02 11:18:20;;;;;;;15.88;6.00;;;19.30;99.90;;;;;;5058059;28;20817;-56
2023/10/02 11:20:51;;;;;;;13.20;5.93;;;19.50;99.90;;;;;;5076321;28;20111;-57
2023/10/02 11:23:30;;;;;;;8.63;5.25;;;19.60;99.90;;;;;;5057253;28;20363;-56
2023/10/02 11:25:58;;;;;;;;;;;19.80;99.90;;;;;;5062153;28;20048;-55
2023/10/02 11:28:49;;;;;;;13.18;6.10;;;19.80;99.90;;;;;;5063310;28;20593;-52
2023/10/02 11:31:32;;;;;;;12.93;5.63;;;19.60;99.90;;;;;;5053636;28;20127;-52
2023/10/02 11:34:10;;;;;;;11.88;5.75;;;19.70;99.90;;;;;;5056883;28;20017;-57
2023/10/02 11:36:39;;;;;;;11.50;6.10;;;19.60;99.90;;;;;;5065038;28;20037;-51
2023/10/02 11:39:09;;;;;;;11.20;5.40;;;19.70;99.90;;;;;;5054111;28;20123;-56
2023/10/02 11:41:39;;;;;;;10.32;5.10;;;19.60;99.90;;;;;;5055384;28;20439;-52
2023/10/02 11:44:10;;;;;;;12.55;5.25;;;19.50;99.90;;;;;;5063563;28;20052;-49
2023/10/02 11:46:37;;;;;;;15.15;5.63;;;19.50;99.90;;;;;;5062388;28;20062;-41
2023/10/02 11:49:03;;;;;;;8.13;4.70;;;19.60;99.90;;;;;;5055356;28;20100;-42
2023/10/02 11:51:29;;;;;;;9.55;4.90;;;19.60;99.90;;;;;;5062347;28;20493;-50
2023/10/02 11:53:59;;;;;;;10.45;4.95;;;19.60;99.90;;;;;;5067036;28;20028;-50
2023/10/02 11:56:28;;;;;;;12.30;5.18;;;19.60;99.90;;;;;;5064745;28;20059;-50
2023/10/02 11:58:56;;;;;;;9.98;4.35;;;19.60;99.90;;;;;;5068719;28;20048;-55
2023/10/02 12:01:22;;;;;;;10.95;4.60;;;19.60;99.90;;;;;;5101585;28;20033;-55
2023/10/02 12:03:56;;;;;;;10.85;5.70;;;19.70;99.90;;;;;;5057828;28;20037;-50
2023/10/02 12:06:23;;;;;;;12.18;5.30;;;19.80;99.90;;;;;;5067272;28;20491;-51
2023/10/02 12:08:50;;;;;;;11.95;5.65;;;19.80;99.90;;;;;;5067471;28;20028;-44
2023/10/02 12:11:15;;;;;;;11.43;5.18;;;19.80;99.90;;;;;;5064645;28;20111;-44
2023/10/02 12:13:44;;;;;;;14.70;5.13;;;19.80;99.90;;;;;;5060398;28;20131;-50
2023/10/02 12:16:13;;;;;;;10.95;5.40;;;19.90;99.90;;;;;;5069973;28;20108;-47
2023/10/02 12:18:41;;;;;;;11.45;4.88;;;19.80;99.90;;;;;;5070406;28;20548;-47
2023/10/02 12:21:11;;;;;;;10.13;5.30;;;19.80;99.90;;;;;;5077153;28;20008;-57
2023/10/02 12:23:40;;;;;;;10.52;4.78;;;19.80;99.90;;;;;;5068094;28;20478;-41
2023/10/02 12:26:13;;;;;;;14.70;5.43;;;19.80;99.90;;;;;;5069591;28;20034;-53
2023/10/02 12:28:39;;;;;;;12.10;4.88;;;19.90;99.90;;;;;;5071385;28;20024;-55
2023/10/02 12:31:10;;;;;;;11.48;4.93;;;19.90;99.90;;;;;;5071026;28;20104;-52
2023/10/02 12:33:39;;;;;;;10.02;5.10;;;19.90;99.90;;;;;;5069667;28;20024;-50
2023/10/02 12:36:17;;;;;;;11.45;4.97;;;20.00;99.90;;;;;;5071550;28;20025;-48
2023/10/02 12:38:44;;;;;;;9.82;5.03;;;20.10;99.90;;;;;;5069889;28;20024;-61
2023/10/02 12:41:16;;;;;;;9.45;3.92;;;20.20;99.90;;;;;;5070589;28;20070;-51
2023/10/02 12:43:47;;;;;;;10.82;4.90;;;20.40;99.90;;;;;;5070870;28;20025;-54
2023/10/02 12:46:16;;;;;;;9.20;3.78;;;20.60;99.90;;;;;;5072601;28;20032;-48
2023/10/02 12:48:44;;;;;;;9.32;4.28;;;20.70;99.90;;;;;;5072169;28;20032;-54
2023/10/02 12:51:13;;;;;;;9.15;3.88;;;20.70;99.90;;;;;;5054383;28;20435;-44
2023/10/02 12:53:39;;;;;;;7.38;3.85;;;20.60;99.90;;;;;;5060707;28;20017;-44
2023/10/02 12:56:05;;;;;;;7.32;3.78;;;20.60;99.90;;;;;;5065284;28;20035;-45
2023/10/02 12:58:35;;;;;;;7.78;3.85;;;20.50;99.90;;;;;;5068113;28;20029;-58
2023/10/02 13:01:02;;;;;;;7.85;3.70;;;20.50;99.90;;;;;;5059252;28;20020;-45
2023/10/02 13:03:29;;;;;;;7.40;3.90;;;20.50;99.90;;;;;;5060697;28;20048;-63
2023/10/02 13:05:57;;;;;;;10.32;3.70;;;20.40;99.90;;;;;;5060793;28;20492;-45
2023/10/02 13:08:27;;;;;;;7.97;3.70;;;20.40;99.90;;;;;;5059446;28;20029;-59
2023/10/02 13:10:54;;;;;;;8.13;3.72;;;20.50;99.90;;;;;;5064723;28;20061;-53
2023/10/02 13:13:20;;;;;;;9.60;4.40;;;20.60;99.90;;;;;;5062635;28;20423;-52
2023/10/02 13:15:48;;;;;;;8.75;3.97;;;20.60;99.90;;;;;;5066669;28;20020;-59
2023/10/02 13:18:15;;;;;;;7.22;3.78;;;20.60;99.90;;;;;;5064302;28;20035;-51
2023/10/02 13:20:41;;;;;;;6.70;3.50;;;20.70;99.90;;;;;;5070534;28;20033;-39
2023/10/02 13:23:06;;;;;;;6.43;3.65;;;20.80;99.90;;;;;;5070539;28;20024;-39
2023/10/02 13:25:32;;;;;;;8.93;4.05;;;21.00;99.90;;;;;;5062436;28;20040;-56
2023/10/02 13:27:59;;;;;;;8.32;3.47;;;21.10;99.90;;;;;;5065262;28;20054;-57
2023/10/02 13:30:30;;;;;;;11.95;3.70;;;21.20;99.90;;;;;;5071900;28;20021;-60
2023/10/02 13:32:56;;;;;;;9.90;3.83;;;21.40;99.90;;;;;;5058607;28;20387;-61
2023/10/02 13:35:23;;;;;;;10.15;4.38;;;21.60;99.90;;;;;;5054001;28;20466;-59
2023/10/02 13:37:50;;;;;;;5.80;2.70;;;21.60;99.90;;;;;;5055792;28;20021;-56
2023/10/02 13:40:26;;;;;;;7.65;3.22;;;21.90;99.90;;;;;;5056957;28;20029;-44
2023/10/02 13:42:52;;;;;;;10.07;3.75;;;22.20;99.90;;;;;;5061211;28;20043;-58
2023/10/02 13:45:21;;;;;;;10.77;5.60;;;22.30;99.90;;;;;;5066975;28;20515;-51